Time;durP1;ratioP1;P1;durP2;ratioP2;P2;SDS_P1;SDS_P2;PMS_P1;PMS_P2;Temp;Humidity;BMP_temperature;BMP_pressure;BME280_temperature;BME280_humidity;BME280_pressure;Samples;Min_cycle;Max_cycle;Signal;HPM_P1;HPM_P2
2021/11/24 00:01:07;;;;;;;44.97;6.15;;;;;;;;;;5005092;28;20033;-43
2021/11/24 00:03:34;;;;;;;70.18;6.85;;;;;;;;;;5004707;28;20018;-41
2021/11/24 00:06:01;;;;;;;54.38;6.60;;;;;;;;;;5004342;28;20045;-40
2021/11/24 00:08:28;;;;;;;51.78;6.32;;;;;;;;;;5005600;28;20075;-40
2021/11/24 00:10:55;;;;;;;46.63;6.95;;;;;;;;;;5004784;28;20018;-42
2021/11/24 00:13:22;;;;;;;53.97;6.40;;;;;;;;;;5005818;28;20087;-42
2021/11/24 00:15:49;;;;;;;54.35;6.70;;;;;;;;;;5003439;28;20042;-38
2021/11/24 00:18:16;;;;;;;46.95;6.35;;;;;;;;;;4996193;28;20030;-45
2021/11/24 00:20:43;;;;;;;50.95;7.32;;;;;;;;;;4999872;28;20031;-40
2021/11/24 00:23:10;;;;;;;43.50;5.38;;;;;;;;;;5007131;28;20508;-38
2021/11/24 00:25:37;;;;;;;43.97;6.60;;;;;;;;;;5008681;28;20080;-39
2021/11/24 00:28:05;;;;;;;40.60;5.97;;;;;;;;;;4998934;28;20025;-38
2021/11/24 00:30:32;;;;;;;44.95;6.13;;;;;;;;;;5001934;28;20041;-41
2021/11/24 00:32:59;;;;;;;47.70;7.00;;;;;;;;;;5008641;28;20071;-41
2021/11/24 00:35:26;;;;;;;35.28;5.95;;;;;;;;;;5003797;28;20478;-43
2021/11/24 00:37:54;;;;;;;47.58;7.20;;;;;;;;;;5008657;28;20671;-40
2021/11/24 00:40:21;;;;;;;47.55;5.60;;;;;;;;;;4917879;28;20099;-39
2021/11/24 00:42:48;;;;;;;46.72;5.65;;;;;;;;;;4988146;28;20022;-41
2021/11/24 00:45:15;;;;;;;49.95;7.97;;;;;;;;;;5005244;28;20055;-41
2021/11/24 00:47:42;;;;;;;49.22;6.65;;;;;;;;;;5004864;28;20022;-40
2021/11/24 00:50:09;;;;;;;40.42;6.82;;;;;;;;;;5006735;28;20041;-38
2021/11/24 00:52:36;;;;;;;42.45;6.55;;;;;;;;;;5012481;28;20113;-38
2021/11/24 00:55:04;;;;;;;77.80;8.57;;;;;;;;;;5009741;28;20029;-44
2021/11/24 00:57:31;;;;;;;74.53;8.02;;;;;;;;;;5010784;28;20121;-40
2021/11/24 00:59:58;;;;;;;73.60;8.75;;;;;;;;;;5011454;28;20026;-41
2021/11/24 01:02:25;;;;;;;58.28;6.85;;;;;;;;;;5010879;28;20026;-42
2021/11/24 01:04:52;;;;;;;49.05;7.00;;;;;;;;;;5010417;28;20026;-41
2021/11/24 01:07:19;;;;;;;46.75;7.68;;;;;;;;;;5006130;28;20112;-40
2021/11/24 01:09:51;;;;;;;68.05;8.13;;;;;;;;;;5011460;28;20029;-38
2021/11/24 01:12:19;;;;;;;49.85;6.68;;;;;;;;;;5006958;28;20391;-40
2021/11/24 01:14:46;;;;;;;48.08;7.45;;;;;;;;;;5009686;28;20018;-38
2021/11/24 01:17:13;;;;;;;48.30;7.30;;;;;;;;;;4997468;28;20044;-39
2021/11/24 01:19:40;;;;;;;56.15;8.80;;;;;;;;;;5012670;28;20028;-41
2021/11/24 01:22:07;;;;;;;45.35;6.93;;;;;;;;;;5011683;28;20783;-40
2021/11/24 01:24:34;;;;;;;55.78;8.77;;;;;;;;;;5010826;28;20040;-39
2021/11/24 01:27:01;;;;;;;51.13;7.80;;;;;;;;;;5012435;28;20041;-41
2021/11/24 01:29:28;;;;;;;53.05;8.30;;;;;;;;;;5011726;28;20037;-37
2021/11/24 01:31:55;;;;;;;47.70;8.43;;;;;;;;;;5013233;28;20061;-38
2021/11/24 01:34:22;;;;;;;52.95;9.68;;;;;;;;;;5009034;28;20429;-42
2021/11/24 01:36:49;;;;;;;44.58;9.18;;;;;;;;;;5010920;28;20117;-38
2021/11/24 01:39:16;;;;;;;50.67;10.40;;;;;;;;;;5011715;28;20022;-38
2021/11/24 01:41:43;;;;;;;44.72;9.18;;;;;;;;;;5011389;28;20033;-39
2021/11/24 01:44:30;;;;;;;46.38;10.00;;;;;;;;;;5011111;28;20036;-38
2021/11/24 01:46:58;;;;;;;50.30;10.73;;;;;;;;;;4999288;28;20022;-41
2021/11/24 01:49:26;;;;;;;37.75;8.65;;;;;;;;;;5004472;28;20033;-39
2021/11/24 01:51:53;;;;;;;50.85;9.70;;;;;;;;;;5006095;28;20095;-38
2021/11/24 01:54:20;;;;;;;50.63;9.25;;;;;;;;;;5004333;28;20139;-40
2021/11/24 01:56:47;;;;;;;47.42;9.48;;;;;;;;;;5010422;28;20115;-38
2021/11/24 01:59:15;;;;;;;46.60;8.35;;;;;;;;;;5008375;28;20026;-39
2021/11/24 02:01:42;;;;;;;67.68;8.88;;;;;;;;;;4998331;28;20477;-41
2021/11/24 02:04:18;;;;;;;40.78;7.82;;;;;;;;;;5008496;28;20033;-42
2021/11/24 02:06:46;;;;;;;27.67;5.68;;;;;;;;;;5009143;28;20045;-41
2021/11/24 02:09:13;;;;;;;39.92;5.68;;;;;;;;;;5010214;28;20489;-41
2021/11/24 02:11:42;;;;;;;29.33;5.07;;;;;;;;;;5011313;28;20036;-43
2021/11/24 02:14:10;;;;;;;32.50;5.40;;;;;;;;;;5010735;28;20088;-41
2021/11/24 02:16:41;;;;;;;38.00;5.20;;;;;;;;;;5010757;28;20405;-39
2021/11/24 02:19:08;;;;;;;36.67;5.63;;;;;;;;;;5011105;28;20268;-41
2021/11/24 02:21:35;;;;;;;28.15;4.60;;;;;;;;;;5009079;28;20863;-43
2021/11/24 02:24:02;;;;;;;25.73;4.70;;;;;;;;;;5010561;28;20548;-41
2021/11/24 02:26:29;;;;;;;35.03;5.50;;;;;;;;;;5009700;28;20033;-42
2021/11/24 02:28:56;;;;;;;25.30;4.25;;;;;;;;;;5010882;28;20026;-42
2021/11/24 02:31:26;;;;;;;30.35;4.68;;;;;;;;;;5010591;28;20112;-43
2021/11/24 02:33:54;;;;;;;21.85;4.32;;;;;;;;;;5010769;28;20026;-42
2021/11/24 02:36:21;;;;;;;32.97;4.68;;;;;;;;;;5010316;28;20037;-40
2021/11/24 02:38:48;;;;;;;21.58;4.82;;;;;;;;;;5011926;28;20032;-39
2021/11/24 02:41:15;;;;;;;35.00;5.05;;;;;;;;;;5011774;28;20101;-41
2021/11/24 02:43:42;;;;;;;29.88;4.93;;;;;;;;;;5011317;28;20026;-41
2021/11/24 02:46:09;;;;;;;24.08;4.50;;;;;;;;;;5011993;28;20411;-42
2021/11/24 02:48:36;;;;;;;25.13;4.05;;;;;;;;;;5011567;28;20107;-40
2021/11/24 02:51:03;;;;;;;21.98;4.35;;;;;;;;;;5002475;28;20030;-43
2021/11/24 02:53:31;;;;;;;20.17;4.32;;;;;;;;;;4997111;28;20026;-43
2021/11/24 02:55:59;;;;;;;26.40;3.60;;;;;;;;;;5009211;28;20069;-40
2021/11/24 02:58:26;;;;;;;31.50;4.22;;;;;;;;;;5010332;28;20061;-41
2021/11/24 03:00:54;;;;;;;16.65;3.22;;;;;;;;;;5007294;28;20021;-39
2021/11/24 03:03:21;;;;;;;24.35;3.50;;;;;;;;;;5010360;28;20018;-41
2021/11/24 03:05:48;;;;;;;20.60;3.42;;;;;;;;;;5009086;28;20120;-40
2021/11/24 03:08:15;;;;;;;15.90;2.70;;;;;;;;;;5009964;28;20018;-42
2021/11/24 03:10:42;;;;;;;22.35;3.63;;;;;;;;;;5010483;28;20378;-43
2021/11/24 03:13:09;;;;;;;17.73;3.08;;;;;;;;;;5010395;28;20101;-41
2021/11/24 03:15:36;;;;;;;19.42;3.55;;;;;;;;;;5009380;28;20034;-42
2021/11/24 03:18:03;;;;;;;16.98;3.10;;;;;;;;;;5010064;28;20022;-42
2021/11/24 03:20:30;;;;;;;21.98;4.03;;;;;;;;;;5010419;28;20628;-43
2021/11/24 03:22:58;;;;;;;22.55;3.20;;;;;;;;;;5010691;28;20026;-45
2021/11/24 03:25:25;;;;;;;18.52;3.70;;;;;;;;;;5009686;28;20040;-42
2021/11/24 03:27:52;;;;;;;28.23;3.50;;;;;;;;;;5010764;28;20486;-43
2021/11/24 03:30:21;;;;;;;21.85;3.85;;;;;;;;;;5010498;28;20040;-43
2021/11/24 03:32:48;;;;;;;16.63;3.08;;;;;;;;;;5009509;28;20026;-42
2021/11/24 03:35:16;;;;;;;25.08;3.17;;;;;;;;;;5009882;28;20029;-42
2021/11/24 03:37:44;;;;;;;14.95;2.85;;;;;;;;;;5009907;28;20038;-42
2021/11/24 03:40:12;;;;;;;14.93;2.95;;;;;;;;;;5011028;28;20108;-41
2021/11/24 03:42:44;;;;;;;16.40;3.08;;;;;;;;;;5010242;28;20018;-42
2021/11/24 03:45:11;;;;;;;24.30;2.88;;;;;;;;;;5010424;28;20025;-43
2021/11/24 03:47:38;;;;;;;20.02;2.95;;;;;;;;;;5009235;28;20053;-43
2021/11/24 03:50:06;;;;;;;17.33;2.60;;;;;;;;;;5010672;28;20026;-42
2021/11/24 03:52:33;;;;;;;19.70;3.50;;;;;;;;;;5009893;28;20026;-41
2021/11/24 03:55:00;;;;;;;13.07;2.70;;;;;;;;;;5010773;28;20040;-44
2021/11/24 03:57:27;;;;;;;19.67;3.17;;;;;;;;;;5007689;28;20141;-42
2021/11/24 03:59:54;;;;;;;14.40;2.63;;;;;;;;;;5008803;28;20458;-43
2021/11/24 04:02:21;;;;;;;14.93;2.53;;;;;;;;;;5013161;28;20038;-41
2021/11/24 04:04:48;;;;;;;24.42;3.05;;;;;;;;;;5013717;28;20509;-43
2021/11/24 04:07:15;;;;;;;15.85;3.30;;;;;;;;;;5012662;28;20065;-43
2021/11/24 04:09:42;;;;;;;17.88;2.92;;;;;;;;;;5014482;28;20397;-44
2021/11/24 04:12:09;;;;;;;15.80;2.63;;;;;;;;;;5012596;28;20034;-41
2021/11/24 04:14:36;;;;;;;16.90;2.45;;;;;;;;;;5014055;28;20037;-42
2021/11/24 04:17:03;;;;;;;18.20;2.55;;;;;;;;;;5013088;28;20530;-42
2021/11/24 04:19:30;;;;;;;14.52;2.35;;;;;;;;;;5013599;28;20481;-45
2021/11/24 04:21:57;;;;;;;11.90;2.20;;;;;;;;;;5014156;28;20026;-40
2021/11/24 04:24:26;;;;;;;13.48;2.40;;;;;;;;;;5013316;28;20037;-44
2021/11/24 04:26:53;;;;;;;12.98;2.97;;;;;;;;;;5013254;28;20409;-42
2021/11/24 04:29:20;;;;;;;14.48;2.22;;;;;;;;;;5013384;28;20026;-45
2021/11/24 04:31:47;;;;;;;11.43;2.15;;;;;;;;;;5014227;28;20494;-40
2021/11/24 04:34:14;;;;;;;11.48;2.53;;;;;;;;;;5013199;28;20018;-44
2021/11/24 04:36:41;;;;;;;16.00;2.38;;;;;;;;;;5012576;28;20684;-41
2021/11/24 04:39:08;;;;;;;10.13;2.20;;;;;;;;;;5013210;28;20036;-42
2021/11/24 04:41:36;;;;;;;8.60;2.00;;;;;;;;;;5013866;28;20096;-40
2021/11/24 04:44:04;;;;;;;10.52;2.03;;;;;;;;;;5013206;28;20482;-42
2021/11/24 04:46:31;;;;;;;9.55;2.03;;;;;;;;;;5013252;28;20489;-41
2021/11/24 04:49:00;;;;;;;17.15;2.50;;;;;;;;;;5012331;28;20053;-42
2021/11/24 04:51:27;;;;;;;8.68;1.83;;;;;;;;;;5013376;28;20099;-44
2021/11/24 04:53:54;;;;;;;10.48;2.08;;;;;;;;;;5013114;28;20034;-41
2021/11/24 04:56:21;;;;;;;11.85;2.20;;;;;;;;;;5013129;28;20044;-41
2021/11/24 04:58:56;;;;;;;10.18;2.47;;;;;;;;;;5011603;28;20030;-42
2021/11/24 05:01:23;;;;;;;7.00;1.98;;;;;;;;;;5013138;28;20030;-43
2021/11/24 05:03:51;;;;;;;8.25;1.90;;;;;;;;;;5012777;28;20084;-41
2021/11/24 05:06:20;;;;;;;10.55;1.55;;;;;;;;;;5012366;28;20299;-42
2021/11/24 05:08:47;;;;;;;11.02;1.95;;;;;;;;;;5011946;28;20037;-42
2021/11/24 05:11:15;;;;;;;12.07;2.15;;;;;;;;;;5009564;28;20034;-40
2021/11/24 05:13:59;;;;;;;10.88;2.58;;;;;;;;;;5011666;28;20058;-38
2021/11/24 05:16:31;;;;;;;7.85;1.55;;;;;;;;;;5012063;28;20151;-40
2021/11/24 05:18:58;;;;;;;8.68;1.90;;;;;;;;;;5011694;28;20096;-41
2021/11/24 05:23:52;;;;;;;9.85;1.73;;;;;;;;;;5012748;28;20022;-40
2021/11/24 05:26:20;;;;;;;9.38;1.80;;;;;;;;;;5012162;28;20382;-40
2021/11/24 05:28:47;;;;;;;11.35;2.30;;;;;;;;;;5011894;28;20470;-42
2021/11/24 05:31:13;;;;;;;12.95;2.22;;;;;;;;;;5012166;28;20033;-41
2021/11/24 05:33:42;;;;;;;11.48;1.95;;;;;;;;;;5012596;28;20030;-42
2021/11/24 05:36:10;;;;;;;11.88;1.52;;;;;;;;;;5012054;28;20057;-42
2021/11/24 05:38:38;;;;;;;9.70;1.85;;;;;;;;;;5010793;28;20393;-41
2021/11/24 05:41:05;;;;;;;6.93;1.33;;;;;;;;;;5012292;28;20111;-42
2021/11/24 05:43:32;;;;;;;7.85;1.90;;;;;;;;;;5012124;28;20029;-41
2021/11/24 05:46:14;;;;;;;9.77;1.80;;;;;;;;;;5012317;28;20105;-43
2021/11/24 05:48:41;;;;;;;8.93;1.55;;;;;;;;;;5012457;28;20056;-43
2021/11/24 05:51:08;;;;;;;11.90;1.95;;;;;;;;;;5011193;28;20525;-42
2021/11/24 05:53:35;;;;;;;8.88;1.48;;;;;;;;;;5011888;28;20468;-43
2021/11/24 05:56:02;;;;;;;16.15;1.58;;;;;;;;;;5011894;28;20061;-43
2021/11/24 05:58:29;;;;;;;8.52;1.40;;;;;;;;;;5010782;28;20022;-41
2021/11/24 06:00:57;;;;;;;8.00;1.42;;;;;;;;;;5010967;28;20398;-42
2021/11/24 06:03:24;;;;;;;6.00;1.40;;;;;;;;;;5011473;28;20481;-43
2021/11/24 06:05:51;;;;;;;5.57;1.33;;;;;;;;;;5011449;28;20060;-43
2021/11/24 06:08:18;;;;;;;8.13;1.20;;;;;;;;;;5009803;28;20029;-42
2021/11/24 06:10:46;;;;;;;8.98;1.48;;;;;;;;;;5011312;28;20026;-43
2021/11/24 06:13:13;;;;;;;6.60;1.75;;;;;;;;;;5011342;28;20033;-42
2021/11/24 06:15:40;;;;;;;6.18;1.10;;;;;;;;;;5011882;28;20030;-42
2021/11/24 06:18:08;;;;;;;6.22;1.40;;;;;;;;;;5010991;28;20034;-42
2021/11/24 06:20:36;;;;;;;7.10;1.70;;;;;;;;;;5011268;28;20037;-42
2021/11/24 06:23:03;;;;;;;7.35;1.15;;;;;;;;;;5010948;28;20065;-41
2021/11/24 06:25:30;;;;;;;5.18;1.58;;;;;;;;;;5011325;28;20021;-43
2021/11/24 06:27:57;;;;;;;5.50;1.35;;;;;;;;;;5011165;28;20030;-41
2021/11/24 06:30:25;;;;;;;6.43;1.42;;;;;;;;;;5011403;28;20029;-43
2021/11/24 06:32:53;;;;;;;6.43;1.30;;;;;;;;;;5010162;28;20030;-42
2021/11/24 06:35:19;;;;;;;8.88;1.20;;;;;;;;;;5011391;28;20624;-41
2021/11/24 06:37:46;;;;;;;11.60;1.38;;;;;;;;;;5010694;28;20790;-41
2021/11/24 06:40:14;;;;;;;7.45;1.50;;;;;;;;;;5010027;28;20030;-42
2021/11/24 06:42:41;;;;;;;5.03;1.70;;;;;;;;;;5011182;28;20029;-41
2021/11/24 06:45:09;;;;;;;5.53;1.73;;;;;;;;;;5010867;28;20096;-41
2021/11/24 06:47:38;;;;;;;8.93;1.77;;;;;;;;;;5011452;28;20483;-44
2021/11/24 06:50:05;;;;;;;7.10;1.50;;;;;;;;;;5009982;28;20034;-42
2021/11/24 06:52:32;;;;;;;8.15;1.67;;;;;;;;;;5009811;28;20057;-43
2021/11/24 06:54:59;;;;;;;8.77;1.55;;;;;;;;;;5010512;28;20074;-44
2021/11/24 06:57:26;;;;;;;8.98;1.33;;;;;;;;;;5011127;28;20091;-48
2021/11/24 06:59:53;;;;;;;6.45;1.25;;;;;;;;;;5009680;28;20028;-43
2021/11/24 07:02:20;;;;;;;7.43;1.60;;;;;;;;;;5011009;28;20022;-40
2021/11/24 07:04:47;;;;;;;4.90;1.25;;;;;;;;;;5009965;28;20114;-41
2021/11/24 07:07:14;;;;;;;5.15;1.55;;;;;;;;;;5010746;28;20470;-43
2021/11/24 07:09:41;;;;;;;5.50;1.00;;;;;;;;;;5009347;28;20685;-42
2021/11/24 07:12:09;;;;;;;7.22;1.10;;;;;;;;;;5011096;28;20033;-41
2021/11/24 07:14:36;;;;;;;8.55;1.23;;;;;;;;;;5010542;28;20100;-42
2021/11/24 07:17:04;;;;;;;5.25;1.20;;;;;;;;;;5010816;28;20065;-43
2021/11/24 07:19:31;;;;;;;6.28;1.35;;;;;;;;;;5010231;28;20492;-41
2021/11/24 07:21:57;;;;;;;6.15;1.10;;;;;;;;;;5010148;28;20030;-41
2021/11/24 07:24:24;;;;;;;6.60;1.17;;;;;;;;;;5010391;28;20049;-42
2021/11/24 07:26:52;;;;;;;6.90;1.38;;;;;;;;;;5009270;28;20076;-42
2021/11/24 07:29:20;;;;;;;13.23;1.30;;;;;;;;;;5010084;28;20121;-40
2021/11/24 07:31:47;;;;;;;6.38;1.45;;;;;;;;;;5009770;28;20032;-43
2021/11/24 07:34:14;;;;;;;8.60;1.42;;;;;;;;;;5010699;28;20033;-43
2021/11/24 07:36:41;;;;;;;8.05;1.73;;;;;;;;;;5009141;28;20034;-40
2021/11/24 07:39:08;;;;;;;10.07;1.27;;;;;;;;;;5010158;28;20109;-41
2021/11/24 07:41:35;;;;;;;5.65;1.10;;;;;;;;;;5009926;28;20074;-43
2021/11/24 07:44:02;;;;;;;6.90;1.50;;;;;;;;;;5010744;28;20026;-43
2021/11/24 07:46:29;;;;;;;7.47;1.20;;;;;;;;;;5009119;28;20536;-43
2021/11/24 07:48:57;;;;;;;10.32;1.55;;;;;;;;;;5010826;28;20117;-43
2021/11/24 07:51:24;;;;;;;7.55;1.27;;;;;;;;;;5008769;28;20022;-42
2021/11/24 07:53:51;;;;;;;10.82;1.27;;;;;;;;;;5009878;28;20026;-43
2021/11/24 07:56:18;;;;;;;8.25;1.33;;;;;;;;;;5009675;28;20137;-42
2021/11/24 07:58:45;;;;;;;10.63;1.38;;;;;;;;;;5008585;28;20513;-41
2021/11/24 08:01:13;;;;;;;10.05;1.23;;;;;;;;;;5009805;28;20030;-40
2021/11/24 08:03:40;;;;;;;5.40;1.30;;;;;;;;;;5009814;28;20034;-43
2021/11/24 08:06:07;;;;;;;6.95;1.27;;;;;;;;;;5010225;28;20430;-42
2021/11/24 08:08:34;;;;;;;5.53;1.52;;;;;;;;;;5010000;28;20030;-43
2021/11/24 08:11:02;;;;;;;6.88;1.10;;;;;;;;;;5009960;28;20022;-42
2021/11/24 08:13:29;;;;;;;5.82;1.15;;;;;;;;;;5009355;28;20030;-42
2021/11/24 08:15:56;;;;;;;6.15;1.10;;;;;;;;;;5010157;28;20382;-41
2021/11/24 08:18:23;;;;;;;5.68;1.33;;;;;;;;;;5008942;28;20049;-40
2021/11/24 08:20:50;;;;;;;11.40;1.40;;;;;;;;;;5010423;28;20037;-44
2021/11/24 08:23:17;;;;;;;7.00;1.17;;;;;;;;;;5009015;28;20025;-43
2021/11/24 08:25:44;;;;;;;6.93;1.35;;;;;;;;;;5009280;28;20030;-40
2021/11/24 08:28:11;;;;;;;4.75;1.02;;;;;;;;;;5008712;28;20030;-45
2021/11/24 08:30:38;;;;;;;3.55;0.90;;;;;;;;;;5010091;28;20030;-43
2021/11/24 08:33:05;;;;;;;10.80;1.23;;;;;;;;;;5009652;28;20022;-41
2021/11/24 08:35:32;;;;;;;8.27;1.10;;;;;;;;;;5010249;28;20026;-43
2021/11/24 08:37:59;;;;;;;4.82;1.33;;;;;;;;;;5009770;28;20536;-42
2021/11/24 08:40:26;;;;;;;5.10;1.15;;;;;;;;;;5008916;28;20398;-41
2021/11/24 08:42:53;;;;;;;8.30;1.58;;;;;;;;;;5009718;28;20097;-42
2021/11/24 08:45:20;;;;;;;4.60;1.10;;;;;;;;;;5009368;28;20076;-43
2021/11/24 08:47:48;;;;;;;7.22;1.00;;;;;;;;;;5012809;28;20471;-44
2021/11/24 08:50:15;;;;;;;5.45;1.23;;;;;;;;;;5012724;28;20026;-43
2021/11/24 08:52:43;;;;;;;6.18;1.10;;;;;;;;;;5012824;28;20026;-42
2021/11/24 08:55:11;;;;;;;7.63;1.38;;;;;;;;;;5012371;28;20029;-43
2021/11/24 08:57:38;;;;;;;5.65;1.20;;;;;;;;;;5012964;28;20112;-42
2021/11/24 09:00:06;;;;;;;8.85;1.65;;;;;;;;;;5012144;28;20470;-39
2021/11/24 09:02:33;;;;;;;11.00;1.30;;;;;;;;;;5012674;28;20026;-41
2021/11/24 09:05:02;;;;;;;5.20;1.20;;;;;;;;;;5011103;28;20050;-44
2021/11/24 09:07:28;;;;;;;6.82;1.15;;;;;;;;;;5011351;28;20508;-42
2021/11/24 09:09:55;;;;;;;5.10;1.10;;;;;;;;;;5012551;28;20060;-41
2021/11/24 09:12:22;;;;;;;7.28;1.10;;;;;;;;;;5012503;28;20030;-44
2021/11/24 09:14:49;;;;;;;8.32;1.73;;;;;;;;;;5012045;28;20413;-42
2021/11/24 09:17:16;;;;;;;9.63;1.38;;;;;;;;;;5012824;28;20037;-44
2021/11/24 09:19:45;;;;;;;8.75;1.33;;;;;;;;;;5012579;28;20022;-41
2021/11/24 09:22:13;;;;;;;9.88;1.00;;;;;;;;;;5012292;28;20034;-42
2021/11/24 09:24:40;;;;;;;3.60;1.00;;;;;;;;;;5012410;28;20033;-42
2021/11/24 09:27:14;;;;;;;10.48;1.40;;;;;;;;;;5012256;28;20026;-40
2021/11/24 09:29:41;;;;;;;12.60;1.80;;;;;;;;;;5012851;28;20025;-42
2021/11/24 09:32:08;;;;;;;12.85;1.27;;;;;;;;;;5011120;28;20351;-41
2021/11/24 09:34:35;;;;;;;5.15;1.30;;;;;;;;;;5012775;28;20037;-43
2021/11/24 09:37:02;;;;;;;12.48;1.73;;;;;;;;;;5012144;28;20395;-40
2021/11/24 09:39:29;;;;;;;6.43;1.17;;;;;;;;;;5012458;28;20033;-41
2021/11/24 09:41:57;;;;;;;9.05;1.15;;;;;;;;;;5011266;28;20701;-40
2021/11/24 09:44:24;;;;;;;6.97;1.08;;;;;;;;;;5010679;28;20022;-39
2021/11/24 09:46:51;;;;;;;10.05;1.05;;;;;;;;;;5011774;28;20030;-40
2021/11/24 09:49:19;;;;;;;8.30;1.27;;;;;;;;;;5012047;28;20466;-41
2021/11/24 09:51:46;;;;;;;8.43;1.25;;;;;;;;;;5011838;28;20037;-40
2021/11/24 09:54:16;;;;;;;10.60;1.33;;;;;;;;;;5010691;28;20029;-44
2021/11/24 09:56:45;;;;;;;8.30;1.17;;;;;;;;;;5011092;28;20095;-41
2021/11/24 09:59:12;;;;;;;14.52;1.60;;;;;;;;;;5010620;28;20575;-42
2021/11/24 10:01:41;;;;;;;9.30;1.88;;;;;;;;;;5011589;28;20041;-39
2021/11/24 10:04:08;;;;;;;18.20;2.22;;;;;;;;;;5011252;28;20109;-41
2021/11/24 10:06:38;;;;;;;15.10;1.92;;;;;;;;;;5011931;28;20560;-42
2021/11/24 10:09:05;;;;;;;18.50;2.25;;;;;;;;;;5011711;28;20029;-40
2021/11/24 10:11:32;;;;;;;16.08;2.25;;;;;;;;;;5011489;28;20034;-42
2021/11/24 10:13:59;;;;;;;17.85;2.10;;;;;;;;;;5010898;28;20084;-40
2021/11/24 10:16:34;;;;;;;17.48;2.20;;;;;;;;;;5011972;28;20078;-39
2021/11/24 10:19:05;;;;;;;20.02;1.90;;;;;;;;;;5011246;28;20352;-43
2021/11/24 10:21:33;;;;;;;15.63;1.97;;;;;;;;;;5011798;28;20029;-40
2021/11/24 10:24:02;;;;;;;23.17;2.80;;;;;;;;;;5010136;28;20022;-39
2021/11/24 10:26:32;;;;;;;22.83;3.38;;;;;;;;;;5011558;28;20113;-41
2021/11/24 10:29:09;;;;;;;38.80;3.60;;;;;;;;;;5011342;28;20053;-41
2021/11/24 10:31:41;;;;;;;30.05;3.33;;;;;;;;;;5009734;28;20713;-39
2021/11/24 10:34:17;;;;;;;29.75;2.95;;;;;;;;;;5010244;28;20018;-40
2021/11/24 10:36:50;;;;;;;39.58;3.25;;;;;;;;;;5011239;28;20053;-41
2021/11/24 10:39:17;;;;;;;32.92;3.88;;;;;;;;;;5010736;28;20034;-40
2021/11/24 10:41:44;;;;;;;31.42;3.53;;;;;;;;;;5011136;28;20140;-40
2021/11/24 10:44:11;;;;;;;36.33;2.80;;;;;;;;;;5010401;28;20096;-38
2021/11/24 10:46:38;;;;;;;39.78;3.55;;;;;;;;;;5011580;28;20074;-39
2021/11/24 10:49:05;;;;;;;48.47;3.92;;;;;;;;;;5010819;28;20091;-39
2021/11/24 10:51:39;;;;;;;36.60;4.30;;;;;;;;;;5011102;28;20088;-41
2021/11/24 10:54:06;;;;;;;44.03;3.47;;;;;;;;;;5009736;28;20056;-42
2021/11/24 10:56:33;;;;;;;35.30;5.03;;;;;;;;;;5010668;28;20034;-42
2021/11/24 10:59:19;;;;;;;37.42;3.47;;;;;;;;;;5010086;28;20021;-38
2021/11/24 11:01:46;;;;;;;120.35;12.60;;;;;;;;;;5001748;28;20076;-42
2021/11/24 11:04:13;;;;;;;100.40;9.02;;;;;;;;;;4989675;28;20030;-45
2021/11/24 11:06:41;;;;;;;55.35;7.53;;;;;;;;;;4989599;28;20046;-41
2021/11/24 11:09:09;;;;;;;73.20;5.57;;;;;;;;;;4990768;28;20364;-40
2021/11/24 11:11:37;;;;;;;79.22;6.78;;;;;;;;;;4989977;28;20033;-42
2021/11/24 11:14:25;;;;;;;111.57;9.20;;;;;;;;;;4990353;28;20022;-39
2021/11/24 11:16:53;;;;;;;107.10;9.10;;;;;;;;;;4988517;28;20748;-45
2021/11/24 11:19:38;;;;;;;71.30;7.15;;;;;;;;;;4991093;28;20030;-42
2021/11/24 11:22:06;;;;;;;45.63;4.78;;;;;;;;;;4990565;28;20030;-46
2021/11/24 11:24:33;;;;;;;35.83;4.03;;;;;;;;;;4989008;28;20545;-42
2021/11/24 11:27:00;;;;;;;38.90;4.00;;;;;;;;;;4989374;28;20030;-42
2021/11/24 11:29:27;;;;;;;33.95;4.22;;;;;;;;;;4990403;28;20061;-43
2021/11/24 11:31:55;;;;;;;50.15;3.75;;;;;;;;;;4990447;28;20019;-45
2021/11/24 11:34:23;;;;;;;34.28;3.67;;;;;;;;;;5002965;28;20022;-43
2021/11/24 11:36:50;;;;;;;51.95;3.95;;;;;;;;;;5009228;28;20037;-41
2021/11/24 11:39:17;;;;;;;37.08;4.25;;;;;;;;;;5009011;28;20104;-44
2021/11/24 11:41:44;;;;;;;27.15;3.45;;;;;;;;;;5009856;28;20097;-40
2021/11/24 11:44:17;;;;;;;33.25;2.83;;;;;;;;;;5009914;28;20068;-42
2021/11/24 11:46:48;;;;;;;40.63;3.65;;;;;;;;;;5008965;28;20390;-39
2021/11/24 11:49:22;;;;;;;31.50;3.20;;;;;;;;;;5009264;28;20030;-43
2021/11/24 11:51:50;;;;;;;25.08;3.35;;;;;;;;;;5009482;28;20041;-40
2021/11/24 11:54:29;;;;;;;32.53;3.25;;;;;;;;;;5006142;28;20033;-41
2021/11/24 11:56:57;;;;;;;31.77;3.00;;;;;;;;;;5008557;28;20048;-42
2021/11/24 11:59:25;;;;;;;36.78;3.13;;;;;;;;;;5008690;28;20028;-39
2021/11/24 12:01:54;;;;;;;32.78;3.50;;;;;;;;;;5009652;28;20108;-41
2021/11/24 12:04:23;;;;;;;41.53;3.63;;;;;;;;;;5009397;28;20113;-42
2021/11/24 12:06:53;;;;;;;36.08;3.20;;;;;;;;;;5007777;28;20050;-45
2021/11/24 12:09:20;;;;;;;32.60;3.25;;;;;;;;;;5009746;28;20022;-40
2021/11/24 12:12:05;;;;;;;28.02;3.00;;;;;;;;;;5008741;28;20058;-42
2021/11/24 12:14:43;;;;;;;33.78;3.30;;;;;;;;;;5008863;28;20037;-44
2021/11/24 12:17:32;;;;;;;24.23;3.22;;;;;;;;;;5008302;28;20044;-38
2021/11/24 12:19:58;;;;;;;21.85;2.80;;;;;;;;;;5008608;28;20029;-44
2021/11/24 12:22:43;;;;;;;31.38;3.25;;;;;;;;;;5009956;28;20054;-44
2021/11/24 12:25:20;;;;;;;28.00;2.70;;;;;;;;;;5012524;28;20044;-44
2021/11/24 12:33:08;;;;;;;26.65;2.72;;;;;;;;;;5011924;28;20029;-48
2021/11/24 12:35:36;;;;;;;29.40;3.20;;;;;;;;;;5013070;28;20034;-45
2021/11/24 12:38:04;;;;;;;34.65;3.55;;;;;;;;;;5013263;28;20026;-53
2021/11/24 12:40:35;;;;;;;38.40;3.40;;;;;;;;;;5012937;28;20050;-42
2021/11/24 12:43:04;;;;;;;26.48;2.90;;;;;;;;;;5002528;28;20073;-44
2021/11/24 12:45:31;;;;;;;31.60;2.95;;;;;;;;;;4991894;28;20033;-44
2021/11/24 12:47:59;;;;;;;26.75;2.53;;;;;;;;;;4993662;28;20097;-41
2021/11/24 12:50:27;;;;;;;24.35;3.17;;;;;;;;;;4993728;28;20086;-46
2021/11/24 12:53:13;;;;;;;29.08;2.83;;;;;;;;;;5011893;28;20026;-41
2021/11/24 12:55:40;;;;;;;15.90;2.13;;;;;;;;;;5011487;28;20041;-44
2021/11/24 12:58:27;;;;;;;24.30;2.33;;;;;;;;;;5012696;28;20032;-47
2021/11/24 13:00:54;;;;;;;33.47;3.25;;;;;;;;;;5004885;28;20077;-43
2021/11/24 13:03:28;;;;;;;16.98;2.33;;;;;;;;;;4991293;28;20022;-43
2021/11/24 13:05:58;;;;;;;27.88;2.90;;;;;;;;;;4990835;28;20046;-41
2021/11/24 13:08:25;;;;;;;24.25;2.60;;;;;;;;;;4993066;28;20114;-41
2021/11/24 13:11:06;;;;;;;20.35;2.22;;;;;;;;;;4992846;28;20022;-45
2021/11/24 13:13:34;;;;;;;23.05;2.72;;;;;;;;;;4993307;28;20482;-41
2021/11/24 13:16:01;;;;;;;29.30;3.08;;;;;;;;;;4990886;28;20034;-43
2021/11/24 13:18:28;;;;;;;26.73;2.80;;;;;;;;;;4992845;28;20022;-43
2021/11/24 13:20:55;;;;;;;24.70;2.70;;;;;;;;;;4992496;28;20040;-44
2021/11/24 13:23:22;;;;;;;21.02;2.80;;;;;;;;;;4991629;28;20050;-41
2021/11/24 13:25:49;;;;;;;25.63;2.83;;;;;;;;;;4991315;28;20109;-45
2021/11/24 13:28:18;;;;;;;23.85;2.70;;;;;;;;;;4992503;28;20022;-42
2021/11/24 13:30:50;;;;;;;24.95;2.38;;;;;;;;;;4992687;28;20041;-44
2021/11/24 13:33:18;;;;;;;22.90;2.67;;;;;;;;;;4990882;28;20110;-40
2021/11/24 13:36:03;;;;;;;19.40;2.45;;;;;;;;;;4991282;28;20026;-44
2021/11/24 13:38:35;;;;;;;21.58;2.67;;;;;;;;;;4992393;28;20034;-44
2021/11/24 13:41:01;;;;;;;;;;;;;;;;;;4992674;28;20037;-41
2021/11/24 13:43:33;;;;;;;24.15;2.60;;;;;;;;;;4991720;28;19964;-41
2021/11/24 13:46:09;;;;;;;15.23;2.83;;;;;;;;;;4990985;28;20494;-44
2021/11/24 13:48:36;;;;;;;24.92;2.80;;;;;;;;;;4991321;28;20081;-42
2021/11/24 13:51:05;;;;;;;14.32;2.40;;;;;;;;;;4991988;28;20109;-43
2021/11/24 13:53:39;;;;;;;25.15;2.17;;;;;;;;;;4989571;28;20026;-42
2021/11/24 13:56:15;;;;;;;28.95;3.50;;;;;;;;;;4989429;28;20037;-44
2021/11/24 13:59:02;;;;;;;18.80;2.90;;;;;;;;;;4989264;28;20649;-42
2021/11/24 14:01:35;;;;;;;38.53;3.40;;;;;;;;;;4991412;28;20057;-42
2021/11/24 14:04:05;;;;;;;24.23;2.83;;;;;;;;;;4990997;28;20034;-44
2021/11/24 14:06:32;;;;;;;27.10;2.58;;;;;;;;;;4991027;28;20047;-42
2021/11/24 14:09:20;;;;;;;25.45;3.65;;;;;;;;;;4988859;28;20034;-42
2021/11/24 14:12:07;;;;;;;32.92;3.17;;;;;;;;;;4991970;28;20169;-47
2021/11/24 14:14:46;;;;;;;22.67;2.97;;;;;;;;;;4991549;28;20041;-45
2021/11/24 14:17:23;;;;;;;27.20;3.33;;;;;;;;;;4990243;28;20490;-43
2021/11/24 14:19:50;;;;;;;21.08;3.00;;;;;;;;;;4990721;28;20140;-43
2021/11/24 14:22:17;;;;;;;25.67;2.75;;;;;;;;;;4991716;28;20030;-43
2021/11/24 14:24:44;;;;;;;15.73;2.30;;;;;;;;;;4991247;28;20474;-44
2021/11/24 14:27:11;;;;;;;22.98;2.72;;;;;;;;;;4990195;28;20033;-43
2021/11/24 14:29:38;;;;;;;24.52;2.70;;;;;;;;;;4991349;28;20030;-46
2021/11/24 14:32:05;;;;;;;23.90;4.05;;;;;;;;;;4990369;28;20030;-43
2021/11/24 14:34:32;;;;;;;29.15;3.80;;;;;;;;;;4991013;28;20057;-44
2021/11/24 14:36:59;;;;;;;21.30;2.78;;;;;;;;;;5009332;28;20041;-49
2021/11/24 14:39:26;;;;;;;23.85;4.07;;;;;;;;;;5009559;28;20045;-42
2021/11/24 14:41:53;;;;;;;18.40;2.30;;;;;;;;;;5009559;28;20034;-41
2021/11/24 14:44:25;;;;;;;19.98;2.75;;;;;;;;;;5009694;28;20109;-41
2021/11/24 14:46:52;;;;;;;23.00;2.90;;;;;;;;;;5010679;28;20041;-43
2021/11/24 14:49:20;;;;;;;26.98;3.22;;;;;;;;;;5010462;28;20269;-44